createdAt,value
2023-03-22T00:02:18.872Z,9.48
2023-03-22T00:04:48.283Z,9.38
2023-03-22T00:07:17.769Z,10.23
2023-03-22T00:09:47.174Z,8.88
2023-03-22T00:12:16.622Z,9.15
2023-03-22T00:14:46.141Z,7.45
2023-03-22T00:17:16.911Z,8.02
2023-03-22T00:19:46.482Z,10.82
2023-03-22T00:22:16.226Z,10.90
2023-03-22T00:24:45.916Z,8.45
2023-03-22T00:27:15.842Z,7.78
2023-03-22T00:29:45.275Z,11.07
2023-03-22T00:32:16.072Z,9.60
2023-03-22T00:34:45.539Z,8.30
2023-03-22T00:37:16.378Z,9.20
2023-03-22T00:39:46.115Z,7.50
2023-03-22T00:42:15.597Z,8.23
2023-03-22T00:44:44.994Z,10.13
2023-03-22T00:47:15.760Z,10.85
2023-03-22T00:49:45.302Z,12.02
2023-03-22T00:52:14.841Z,12.50
2023-03-22T00:54:44.803Z,9.00
2023-03-22T00:57:14.795Z,9.57
2023-03-22T00:59:44.299Z,9.80
2023-03-22T01:02:14.340Z,8.55
2023-03-22T01:04:46.270Z,8.63
2023-03-22T01:07:21.435Z,7.68
2023-03-22T01:09:51.771Z,10.98
2023-03-22T01:12:21.852Z,10.38
2023-03-22T01:14:51.551Z,10.45
2023-03-22T01:17:21.162Z,10.05
2023-03-22T01:19:52.256Z,8.70
2023-03-22T01:22:21.712Z,10.13
2023-03-22T01:24:51.778Z,8.88
2023-03-22T01:27:21.293Z,8.50
2023-03-22T01:29:50.699Z,9.13
2023-03-22T01:32:20.249Z,9.05
2023-03-22T01:34:52.134Z,9.13
2023-03-22T01:37:25.475Z,9.95
2023-03-22T01:39:56.207Z,8.68
2023-03-22T01:42:27.540Z,9.80
2023-03-22T01:45:35.660Z,8.38
2023-03-22T01:48:12.833Z,12.70
2023-03-22T01:50:49.460Z,9.80
2023-03-22T01:53:23.656Z,9.45
2023-03-22T01:55:54.870Z,10.07
2023-03-22T01:58:29.671Z,10.20
2023-03-22T02:01:02.488Z,8.93
2023-03-22T02:03:59.570Z,10.73
2023-03-22T02:06:32.355Z,10.65
2023-03-22T02:09:13.359Z,9.32
2023-03-22T02:11:50.718Z,10.52
2023-03-22T02:14:51.469Z,10.20
2023-03-22T02:17:59.746Z,11.32
2023-03-22T02:21:33.860Z,8.23
2023-03-22T02:25:22.802Z,10.60
2023-03-22T02:28:18.843Z,8.90
2023-03-22T02:31:37.251Z,12.27
2023-03-22T02:34:53.962Z,10.50
2023-03-22T02:38:06.448Z,11.68
2023-03-22T02:40:46.142Z,8.27
2023-03-22T02:43:30.884Z,8.95
2023-03-22T02:46:08.959Z,10.27
2023-03-22T02:48:51.738Z,9.77
2023-03-22T02:51:26.166Z,9.02
2023-03-22T02:54:04.761Z,9.50
2023-03-22T02:56:42.522Z,10.57
2023-03-22T02:59:14.836Z,11.07
2023-03-22T03:01:50.512Z,8.77
2023-03-22T03:04:27.523Z,8.48
2023-03-22T03:07:04.329Z,8.73
2023-03-22T03:09:35.046Z,7.75
2023-03-22T03:12:15.860Z,8.45
2023-03-22T03:14:45.723Z,8.02
2023-03-22T03:17:39.289Z,9.10
2023-03-22T03:20:29.962Z,7.70
2023-03-22T03:23:18.841Z,8.50
2023-03-22T03:26:02.372Z,9.45
2023-03-22T03:31:29.906Z,7.18
2023-03-22T03:34:12.089Z,7.88
2023-03-22T03:36:51.485Z,10.50
2023-03-22T03:39:25.663Z,10.82
2023-03-22T03:41:57.741Z,14.60
2023-03-22T03:44:32.745Z,9.18
2023-03-22T03:47:04.770Z,12.52
2023-03-22T03:49:34.640Z,10.52
2023-03-22T03:52:06.641Z,6.70
2023-03-22T03:54:36.392Z,7.72
2023-03-22T03:57:08.296Z,8.75
2023-03-22T03:59:40.887Z,11.43
2023-03-22T04:02:50.642Z,10.93
2023-03-22T04:05:39.265Z,11.23
2023-03-22T04:08:09.900Z,11.40
2023-03-22T04:10:39.607Z,9.80
2023-03-22T04:13:09.471Z,15.43
2023-03-22T04:15:41.036Z,10.68
2023-03-22T04:18:15.145Z,8.38
2023-03-22T04:20:49.456Z,9.80
2023-03-22T04:23:22.485Z,11.13
2023-03-22T04:25:52.025Z,11.23
2023-03-22T04:28:33.865Z,9.25
2023-03-22T04:31:04.839Z,9.40
2023-03-22T04:33:49.780Z,11.95
2023-03-22T04:36:39.984Z,10.20
2023-03-22T04:39:19.314Z,16.95
2023-03-22T04:41:57.592Z,10.32
2023-03-22T04:44:27.870Z,10.35
2023-03-22T04:46:58.749Z,11.27
2023-03-22T04:49:28.319Z,10.57
2023-03-22T04:51:58.674Z,10.65
2023-03-22T04:54:50.950Z,9.82
2023-03-22T04:57:21.149Z,9.75
2023-03-22T04:59:51.364Z,9.40
2023-03-22T05:02:22.532Z,7.05
2023-03-22T05:04:53.126Z,8.48
2023-03-22T05:07:36.717Z,8.30
2023-03-22T05:10:09.417Z,10.02
2023-03-22T05:12:39.479Z,7.72
2023-03-22T05:15:21.438Z,8.43
2023-03-22T05:17:55.802Z,6.97
2023-03-22T05:20:26.218Z,7.60
2023-03-22T05:23:09.900Z,10.10
2023-03-22T05:25:44.997Z,9.82
2023-03-22T05:28:15.808Z,9.45
2023-03-22T05:30:57.250Z,11.35
2023-03-22T05:33:38.447Z,10.27
2023-03-22T05:36:12.390Z,7.27
2023-03-22T05:38:55.875Z,7.72
2023-03-22T05:41:26.257Z,10.15
2023-03-22T05:43:55.867Z,7.72
2023-03-22T05:46:25.631Z,7.97
2023-03-22T05:49:14.773Z,6.78
2023-03-22T05:51:44.469Z,8.20
2023-03-22T05:54:16.497Z,10.80
2023-03-22T05:56:54.621Z,7.28
2023-03-22T05:59:25.405Z,5.82
2023-03-22T06:01:54.886Z,6.95
2023-03-22T06:04:27.697Z,6.45
2023-03-22T06:07:00.202Z,6.43
2023-03-22T06:09:39.983Z,5.13
2023-03-22T06:12:13.930Z,6.80
2023-03-22T06:14:44.192Z,9.75
2023-03-22T06:17:23.885Z,6.63
2023-03-22T06:19:55.314Z,6.88
2023-03-22T06:22:25.121Z,6.90
2023-03-22T06:24:55.310Z,6.78
2023-03-22T06:27:35.461Z,5.43
2023-03-22T06:30:06.887Z,5.82
2023-03-22T06:32:45.165Z,7.22
2023-03-22T06:35:16.416Z,5.43
2023-03-22T06:37:48.240Z,5.45
2023-03-22T06:40:17.873Z,10.93
2023-03-22T06:42:48.515Z,7.28
2023-03-22T06:45:21.829Z,5.40
2023-03-22T06:47:51.955Z,5.68
2023-03-22T06:50:44.176Z,4.53
2023-03-22T06:53:36.352Z,5.82
2023-03-22T06:56:08.452Z,6.35
2023-03-22T06:58:49.293Z,7.65
2023-03-22T07:01:19.403Z,7.43
2023-03-22T07:03:48.997Z,5.43
2023-03-22T07:06:21.348Z,6.68
2023-03-22T07:08:53.040Z,4.63
2023-03-22T07:11:28.286Z,7.13
2023-03-22T07:14:05.630Z,6.43
2023-03-22T07:16:58.128Z,3.47
2023-03-22T07:19:29.674Z,4.55
2023-03-22T07:22:01.908Z,4.13
2023-03-22T07:24:31.658Z,4.80
2023-03-22T07:27:02.113Z,4.38
2023-03-22T07:29:32.508Z,4.60
2023-03-22T07:32:02.181Z,3.80
2023-03-22T07:34:42.102Z,10.35
2023-03-22T07:37:18.960Z,3.95
2023-03-22T07:39:48.650Z,5.25
2023-03-22T07:42:18.197Z,4.30
2023-03-22T07:45:08.056Z,7.13
2023-03-22T07:53:52.686Z,6.05
2023-03-22T07:56:22.853Z,5.93
2023-03-22T07:58:52.591Z,3.50
2023-03-22T08:01:22.225Z,5.40
2023-03-22T08:04:01.613Z,4.85
2023-03-22T08:06:48.968Z,6.25
2023-03-22T08:09:20.729Z,3.80
2023-03-22T08:11:51.507Z,5.32
2023-03-22T08:14:30.573Z,6.72
2023-03-22T08:17:04.235Z,4.07
2023-03-22T08:19:34.118Z,4.57
2023-03-22T08:22:05.285Z,7.40
2023-03-22T08:25:02.363Z,5.07
2023-03-22T08:27:35.292Z,5.78
2023-03-22T08:30:07.316Z,5.18
2023-03-22T08:32:36.815Z,5.85
2023-03-22T08:35:08.672Z,5.38
2023-03-22T08:37:38.225Z,4.35
2023-03-22T08:40:12.705Z,4.22
2023-03-22T08:42:49.414Z,4.40
2023-03-22T08:45:19.351Z,3.58
2023-03-22T08:50:36.617Z,3.10
2023-03-22T08:53:16.249Z,3.93
2023-03-22T08:55:52.118Z,4.18
2023-03-22T08:58:40.266Z,3.15
2023-03-22T09:01:23.535Z,3.95
2023-03-22T09:03:59.366Z,3.05
2023-03-22T09:06:29.680Z,4.20
2023-03-22T09:08:59.796Z,3.38
2023-03-22T09:11:31.306Z,3.85
2023-03-22T09:14:00.797Z,5.88
2023-03-22T09:16:31.394Z,5.72
2023-03-22T09:19:02.674Z,3.83
2023-03-22T09:21:33.597Z,4.55
2023-03-22T09:24:15.100Z,4.50
2023-03-22T09:26:53.887Z,4.50
2023-03-22T09:29:23.319Z,4.05
2023-03-22T09:31:53.487Z,3.17
2023-03-22T09:34:27.144Z,3.63
2023-03-22T09:36:58.659Z,7.53
2023-03-22T09:39:32.079Z,4.45
2023-03-22T09:42:16.642Z,3.45
2023-03-22T09:44:47.455Z,3.88
2023-03-22T09:47:44.149Z,4.15
2023-03-22T09:50:20.178Z,10.43
2023-03-22T09:52:50.896Z,4.10
2023-03-22T09:55:26.222Z,4.53
2023-03-22T09:58:08.268Z,3.95
2023-03-22T10:00:46.606Z,7.88
2023-03-22T10:03:31.954Z,5.93
2023-03-22T10:06:08.359Z,3.92
2023-03-22T10:08:54.049Z,7.65
2023-03-22T10:11:38.783Z,4.25
2023-03-22T10:14:30.806Z,6.35
2023-03-22T10:17:07.883Z,4.60
2023-03-22T10:19:50.819Z,4.60
2023-03-22T10:22:25.560Z,4.30
2023-03-22T10:24:55.926Z,6.05
2023-03-22T10:27:27.783Z,5.00
2023-03-22T10:30:04.677Z,3.65
2023-03-22T10:32:56.713Z,5.15
2023-03-22T10:35:27.842Z,4.25
2023-03-22T10:38:02.242Z,3.42
2023-03-22T10:40:35.612Z,3.95
2023-03-22T10:43:14.187Z,4.07
2023-03-22T10:45:45.359Z,4.68
2023-03-22T10:48:24.728Z,3.97
2023-03-22T10:50:55.829Z,5.53
2023-03-22T10:53:39.116Z,6.53
2023-03-22T10:56:15.980Z,4.63
2023-03-22T10:58:45.978Z,7.65
2023-03-22T11:01:27.007Z,4.10
2023-03-22T11:04:01.197Z,5.93
2023-03-22T11:06:35.293Z,5.88
2023-03-22T11:09:14.465Z,4.28
2023-03-22T11:11:53.238Z,6.90
2023-03-22T11:14:29.221Z,4.57
2023-03-22T11:17:12.515Z,4.15
2023-03-22T11:19:53.396Z,4.20
2023-03-22T11:22:32.431Z,5.85
2023-03-22T11:25:03.270Z,4.60
2023-03-22T11:27:36.318Z,4.68
2023-03-22T11:30:23.724Z,3.28
2023-03-22T11:33:17.659Z,3.10
2023-03-22T11:35:55.427Z,3.92
2023-03-22T11:38:30.617Z,3.60
2023-03-22T11:41:04.822Z,3.72
2023-03-22T11:43:38.378Z,4.43
2023-03-22T11:46:10.828Z,5.43
2023-03-22T11:48:44.043Z,4.07
2023-03-22T11:51:18.912Z,4.25
2023-03-22T11:53:50.031Z,6.15
2023-03-22T11:56:29.446Z,2.88
2023-03-22T11:59:04.875Z,3.33
2023-03-22T12:01:45.547Z,4.03
2023-03-22T12:04:22.518Z,3.85
2023-03-22T12:06:55.088Z,4.18
2023-03-22T12:09:38.063Z,2.90
2023-03-22T12:12:14.777Z,3.78
2023-03-22T12:14:52.909Z,3.97
2023-03-22T12:17:32.262Z,3.80
2023-03-22T12:20:17.743Z,2.83
2023-03-22T12:22:52.875Z,2.80
2023-03-22T12:25:26.860Z,3.33
2023-03-22T12:28:00.714Z,3.15
2023-03-22T12:30:35.470Z,2.95
2023-03-22T12:33:12.633Z,5.38
2023-03-22T12:35:46.827Z,2.45
2023-03-22T12:38:30.563Z,3.25
2023-03-22T12:41:06.950Z,2.63
2023-03-22T12:43:53.365Z,2.05
2023-03-22T12:46:27.798Z,3.63
2023-03-22T12:49:05.047Z,3.90
2023-03-22T12:51:36.296Z,2.60
2023-03-22T12:54:06.905Z,5.63
2023-03-22T12:56:44.762Z,2.13
2023-03-22T12:59:20.630Z,4.38
2023-03-22T13:01:57.556Z,2.95
2023-03-22T13:04:54.888Z,2.50
2023-03-22T13:07:53.361Z,2.92
2023-03-22T13:11:03.160Z,3.22
2023-03-22T13:13:50.417Z,4.18
2023-03-22T13:16:44.972Z,4.45
2023-03-22T13:19:34.309Z,2.75
2023-03-22T13:22:20.994Z,4.00
2023-03-22T13:25:13.688Z,4.65
2023-03-22T13:27:53.800Z,3.80
2023-03-22T13:30:33.002Z,1.88
2023-03-22T13:33:15.923Z,3.95
2023-03-22T13:35:50.926Z,2.47
2023-03-22T13:38:24.290Z,1.92
2023-03-22T13:41:03.036Z,1.70
2023-03-22T13:43:46.773Z,1.85
2023-03-22T13:46:50.894Z,1.70
2023-03-22T13:49:46.324Z,1.88
2023-03-22T13:52:31.074Z,3.42
2023-03-22T13:55:00.671Z,1.83
2023-03-22T13:57:51.101Z,3.58
2023-03-22T14:00:50.905Z,1.65
2023-03-22T14:03:31.761Z,4.15
2023-03-22T14:06:15.256Z,2.65
2023-03-22T14:08:47.302Z,2.42
2023-03-22T14:11:29.431Z,1.20
2023-03-22T14:14:10.691Z,3.57
2023-03-22T14:16:46.451Z,3.42
2023-03-22T14:19:22.399Z,2.85
